sensor_id;sensor_type;location;lat;lon;timestamp;temperature;humidity
51725;DHT22;37801;53.224;6.552;2022-11-12T00:01:21;9.40;99.90
51725;DHT22;37801;53.224;6.552;2022-11-12T00:03:47;9.40;99.90
51725;DHT22;37801;53.224;6.552;2022-11-12T00:06:13;9.40;99.90
51725;DHT22;37801;53.224;6.552;2022-11-12T00:08:38;9.40;99.90
51725;DHT22;37801;53.224;6.552;2022-11-12T00:11:04;9.40;99.90
51725;DHT22;37801;53.224;6.552;2022-11-12T00:13:30;9.40;99.90
51725;DHT22;37801;53.224;6.552;2022-11-12T00:15:56;9.40;99.90
51725;DHT22;37801;53.224;6.552;2022-11-12T00:18:22;9.40;99.90
51725;DHT22;37801;53.224;6.552;2022-11-12T00:20:47;9.40;99.90
51725;DHT22;37801;53.224;6.552;2022-11-12T00:23:13;9.30;99.90
51725;DHT22;37801;53.224;6.552;2022-11-12T00:25:39;9.30;99.90
51725;DHT22;37801;53.224;6.552;2022-11-12T00:28:08;9.30;99.90
51725;DHT22;37801;53.224;6.552;2022-11-12T00:30:36;9.30;99.90
51725;DHT22;37801;53.224;6.552;2022-11-12T00:33:03;9.30;99.90
51725;DHT22;37801;53.224;6.552;2022-11-12T00:35:32;9.30;99.90
51725;DHT22;37801;53.224;6.552;2022-11-12T00:37:58;9.30;99.90
51725;DHT22;37801;53.224;6.552;2022-11-12T00:40:25;9.30;99.90
51725;DHT22;37801;53.224;6.552;2022-11-12T00:42:52;9.30;99.90
51725;DHT22;37801;53.224;6.552;2022-11-12T00:45:19;9.20;99.90
51725;DHT22;37801;53.224;6.552;2022-11-12T00:47:45;9.20;99.90
51725;DHT22;37801;53.224;6.552;2022-11-12T00:50:11;9.20;99.90
51725;DHT22;37801;53.224;6.552;2022-11-12T00:52:37;9.20;99.90
51725;DHT22;37801;53.224;6.552;2022-11-12T00:55:03;9.20;99.90
51725;DHT22;37801;53.224;6.552;2022-11-12T00:57:28;9.20;99.90
51725;DHT22;37801;53.224;6.552;2022-11-12T00:59:54;9.20;99.90
51725;DHT22;37801;53.224;6.552;2022-11-12T01:02:20;9.20;99.90
51725;DHT22;37801;53.224;6.552;2022-11-12T01:04:46;9.20;99.90
51725;DHT22;37801;53.224;6.552;2022-11-12T01:07:13;9.10;99.90
51725;DHT22;37801;53.224;6.552;2022-11-12T01:09:40;9.20;99.90
51725;DHT22;37801;53.224;6.552;2022-11-12T01:12:06;9.10;99.90
51725;DHT22;37801;53.224;6.552;2022-11-12T01:14:32;9.10;99.90
51725;DHT22;37801;53.224;6.552;2022-11-12T01:16:58;9.10;99.90
51725;DHT22;37801;53.224;6.552;2022-11-12T01:19:23;9.10;99.90
51725;DHT22;37801;53.224;6.552;2022-11-12T01:21:49;9.10;99.90
51725;DHT22;37801;53.224;6.552;2022-11-12T01:24:15;9.10;99.90
51725;DHT22;37801;53.224;6.552;2022-11-12T01:26:41;9.00;99.90
51725;DHT22;37801;53.224;6.552;2022-11-12T01:29:06;9.00;99.90
51725;DHT22;37801;53.224;6.552;2022-11-12T01:31:36;9.00;99.90
51725;DHT22;37801;53.224;6.552;2022-11-12T01:34:06;9.00;99.90
51725;DHT22;37801;53.224;6.552;2022-11-12T01:36:36;9.00;99.90
51725;DHT22;37801;53.224;6.552;2022-11-12T01:39:04;9.00;99.90
51725;DHT22;37801;53.224;6.552;2022-11-12T01:41:32;9.00;99.90
51725;DHT22;37801;53.224;6.552;2022-11-12T01:46:40;8.90;99.90
51725;DHT22;37801;53.224;6.552;2022-11-12T01:49:13;8.90;99.90
51725;DHT22;37801;53.224;6.552;2022-11-12T01:51:42;8.90;99.90
51725;DHT22;37801;53.224;6.552;2022-11-12T01:54:12;8.90;99.90
51725;DHT22;37801;53.224;6.552;2022-11-12T01:56:39;8.90;99.90
51725;DHT22;37801;53.224;6.552;2022-11-12T01:59:19;8.90;99.90
51725;DHT22;37801;53.224;6.552;2022-11-12T02:01:46;8.90;99.90
51725;DHT22;37801;53.224;6.552;2022-11-12T02:04:12;8.90;99.90
51725;DHT22;37801;53.224;6.552;2022-11-12T02:06:39;8.90;99.90
51725;DHT22;37801;53.224;6.552;2022-11-12T02:09:06;8.90;99.90
51725;DHT22;37801;53.224;6.552;2022-11-12T02:11:32;8.80;99.90
51725;DHT22;37801;53.224;6.552;2022-11-12T02:13:57;8.90;99.90
51725;DHT22;37801;53.224;6.552;2022-11-12T02:16:32;8.90;99.90
51725;DHT22;37801;53.224;6.552;2022-11-12T02:19:00;8.90;99.90
51725;DHT22;37801;53.224;6.552;2022-11-12T02:21:26;8.90;99.90
51725;DHT22;37801;53.224;6.552;2022-11-12T02:26:25;8.80;99.90
51725;DHT22;37801;53.224;6.552;2022-11-12T02:28:51;8.80;99.90
51725;DHT22;37801;53.224;6.552;2022-11-12T02:31:17;8.80;99.90
51725;DHT22;37801;53.224;6.552;2022-11-12T02:33:43;8.80;99.90
51725;DHT22;37801;53.224;6.552;2022-11-12T02:36:08;8.70;99.90
51725;DHT22;37801;53.224;6.552;2022-11-12T02:38:34;8.70;99.90
51725;DHT22;37801;53.224;6.552;2022-11-12T02:41:00;8.70;99.90
51725;DHT22;37801;53.224;6.552;2022-11-12T02:43:26;8.60;99.90
51725;DHT22;37801;53.224;6.552;2022-11-12T02:45:51;8.60;99.90
51725;DHT22;37801;53.224;6.552;2022-11-12T02:48:17;8.60;99.90
51725;DHT22;37801;53.224;6.552;2022-11-12T02:50:43;8.60;99.90
51725;DHT22;37801;53.224;6.552;2022-11-12T02:53:08;8.60;99.90
51725;DHT22;37801;53.224;6.552;2022-11-12T02:55:34;8.60;99.90
51725;DHT22;37801;53.224;6.552;2022-11-12T02:58:00;8.60;99.90
51725;DHT22;37801;53.224;6.552;2022-11-12T03:00:25;8.60;99.90
51725;DHT22;37801;53.224;6.552;2022-11-12T03:02:51;8.60;99.90
51725;DHT22;37801;53.224;6.552;2022-11-12T03:05:28;8.60;99.90
51725;DHT22;37801;53.224;6.552;2022-11-12T03:08:03;8.50;99.90
51725;DHT22;37801;53.224;6.552;2022-11-12T03:10:30;8.60;99.90
51725;DHT22;37801;53.224;6.552;2022-11-12T03:12:58;8.60;99.90
51725;DHT22;37801;53.224;6.552;2022-11-12T03:15:25;8.50;99.90
51725;DHT22;37801;53.224;6.552;2022-11-12T03:17:51;8.60;99.90
51725;DHT22;37801;53.224;6.552;2022-11-12T03:20:18;8.60;99.90
51725;DHT22;37801;53.224;6.552;2022-11-12T03:22:54;8.60;99.90
51725;DHT22;37801;53.224;6.552;2022-11-12T03:25:21;8.50;99.90
51725;DHT22;37801;53.224;6.552;2022-11-12T03:27:46;8.50;99.90
51725;DHT22;37801;53.224;6.552;2022-11-12T03:30:12;8.50;99.90
51725;DHT22;37801;53.224;6.552;2022-11-12T03:32:38;8.50;99.90
51725;DHT22;37801;53.224;6.552;2022-11-12T03:35:04;8.50;99.90
51725;DHT22;37801;53.224;6.552;2022-11-12T03:37:30;8.40;99.90
51725;DHT22;37801;53.224;6.552;2022-11-12T03:39:55;8.50;99.90
51725;DHT22;37801;53.224;6.552;2022-11-12T03:42:21;8.50;99.90
51725;DHT22;37801;53.224;6.552;2022-11-12T03:44:47;8.50;99.90
51725;DHT22;37801;53.224;6.552;2022-11-12T03:47:12;8.50;99.90
51725;DHT22;37801;53.224;6.552;2022-11-12T03:49:38;8.50;99.90
51725;DHT22;37801;53.224;6.552;2022-11-12T03:52:04;8.50;99.90
51725;DHT22;37801;53.224;6.552;2022-11-12T03:54:29;8.50;99.90
51725;DHT22;37801;53.224;6.552;2022-11-12T03:56:55;8.50;99.90
51725;DHT22;37801;53.224;6.552;2022-11-12T03:59:21;8.40;99.90
51725;DHT22;37801;53.224;6.552;2022-11-12T04:01:46;8.40;99.90
51725;DHT22;37801;53.224;6.552;2022-11-12T04:04:12;8.50;99.90
51725;DHT22;37801;53.224;6.552;2022-11-12T04:06:38;8.40;99.90
51725;DHT22;37801;53.224;6.552;2022-11-12T04:09:22;8.40;99.90
51725;DHT22;37801;53.224;6.552;2022-11-12T04:11:48;8.40;99.90
51725;DHT22;37801;53.224;6.552;2022-11-12T04:14:13;8.50;99.90
51725;DHT22;37801;53.224;6.552;2022-11-12T04:16:39;8.40;99.90
51725;DHT22;37801;53.224;6.552;2022-11-12T04:19:23;8.40;99.90
51725;DHT22;37801;53.224;6.552;2022-11-12T04:22:10;8.40;99.90
51725;DHT22;37801;53.224;6.552;2022-11-12T04:24:40;8.40;99.90
51725;DHT22;37801;53.224;6.552;2022-11-12T04:27:30;8.40;99.90
51725;DHT22;37801;53.224;6.552;2022-11-12T04:29:57;8.40;99.90
51725;DHT22;37801;53.224;6.552;2022-11-12T04:32:52;8.40;99.90
51725;DHT22;37801;53.224;6.552;2022-11-12T04:35:20;8.40;99.90
51725;DHT22;37801;53.224;6.552;2022-11-12T04:37:46;8.30;99.90
51725;DHT22;37801;53.224;6.552;2022-11-12T04:40:26;8.30;99.90
51725;DHT22;37801;53.224;6.552;2022-11-12T04:43:13;8.20;99.90
51725;DHT22;37801;53.224;6.552;2022-11-12T04:45:59;8.20;99.90
51725;DHT22;37801;53.224;6.552;2022-11-12T04:48:26;8.20;99.90
51725;DHT22;37801;53.224;6.552;2022-11-12T04:50:55;8.20;99.90
51725;DHT22;37801;53.224;6.552;2022-11-12T04:53:22;8.20;99.90
51725;DHT22;37801;53.224;6.552;2022-11-12T04:55:53;8.20;99.90
51725;DHT22;37801;53.224;6.552;2022-11-12T04:58:20;8.20;99.90
51725;DHT22;37801;53.224;6.552;2022-11-12T05:00:47;8.30;99.90
51725;DHT22;37801;53.224;6.552;2022-11-12T05:03:13;8.30;99.90
51725;DHT22;37801;53.224;6.552;2022-11-12T05:05:39;8.30;99.90
51725;DHT22;37801;53.224;6.552;2022-11-12T05:08:04;8.30;99.90
51725;DHT22;37801;53.224;6.552;2022-11-12T05:10:30;8.30;99.90
51725;DHT22;37801;53.224;6.552;2022-11-12T05:12:56;8.30;99.90
51725;DHT22;37801;53.224;6.552;2022-11-12T05:15:22;8.30;99.90
51725;DHT22;37801;53.224;6.552;2022-11-12T05:17:48;8.30;99.90
51725;DHT22;37801;53.224;6.552;2022-11-12T05:20:14;8.30;99.90
51725;DHT22;37801;53.224;6.552;2022-11-12T05:22:40;8.30;99.90
51725;DHT22;37801;53.224;6.552;2022-11-12T05:25:07;8.30;99.90
51725;DHT22;37801;53.224;6.552;2022-11-12T05:27:33;8.40;99.90
51725;DHT22;37801;53.224;6.552;2022-11-12T05:29:59;8.40;99.90
51725;DHT22;37801;53.224;6.552;2022-11-12T05:32:25;8.40;99.90
51725;DHT22;37801;53.224;6.552;2022-11-12T05:34:51;8.40;99.90
51725;DHT22;37801;53.224;6.552;2022-11-12T05:37:17;8.40;99.90
51725;DHT22;37801;53.224;6.552;2022-11-12T05:39:43;8.50;99.90
51725;DHT22;37801;53.224;6.552;2022-11-12T05:42:09;8.50;99.90
51725;DHT22;37801;53.224;6.552;2022-11-12T05:44:35;8.50;99.90
51725;DHT22;37801;53.224;6.552;2022-11-12T05:47:00;8.50;99.90
51725;DHT22;37801;53.224;6.552;2022-11-12T05:49:26;8.50;99.90
51725;DHT22;37801;53.224;6.552;2022-11-12T05:51:52;8.50;99.90
51725;DHT22;37801;53.224;6.552;2022-11-12T05:54:17;8.50;99.90
51725;DHT22;37801;53.224;6.552;2022-11-12T05:56:44;8.50;99.90
51725;DHT22;37801;53.224;6.552;2022-11-12T05:59:11;8.50;99.90
51725;DHT22;37801;53.224;6.552;2022-11-12T06:01:38;8.50;99.90
51725;DHT22;37801;53.224;6.552;2022-11-12T06:04:13;8.50;99.90
51725;DHT22;37801;53.224;6.552;2022-11-12T06:06:42;8.40;99.90
51725;DHT22;37801;53.224;6.552;2022-11-12T06:09:08;8.40;99.90
51725;DHT22;37801;53.224;6.552;2022-11-12T06:11:34;8.30;99.90
51725;DHT22;37801;53.224;6.552;2022-11-12T06:14:01;8.30;99.90
51725;DHT22;37801;53.224;6.552;2022-11-12T06:16:27;8.30;99.90
51725;DHT22;37801;53.224;6.552;2022-11-12T06:18:53;8.20;99.90
51725;DHT22;37801;53.224;6.552;2022-11-12T06:21:19;8.30;99.90
51725;DHT22;37801;53.224;6.552;2022-11-12T06:23:50;8.30;99.90
51725;DHT22;37801;53.224;6.552;2022-11-12T06:26:17;8.20;99.90
51725;DHT22;37801;53.224;6.552;2022-11-12T06:28:43;8.20;99.90
51725;DHT22;37801;53.224;6.552;2022-11-12T06:31:08;8.20;99.90
51725;DHT22;37801;53.224;6.552;2022-11-12T06:33:34;8.20;99.90
51725;DHT22;37801;53.224;6.552;2022-11-12T06:36:02;8.20;99.90
51725;DHT22;37801;53.224;6.552;2022-11-12T06:38:29;8.20;99.90
51725;DHT22;37801;53.224;6.552;2022-11-12T06:40:55;8.10;99.90
51725;DHT22;37801;53.224;6.552;2022-11-12T06:43:21;8.10;99.90
51725;DHT22;37801;53.224;6.552;2022-11-12T06:45:47;8.10;99.90
51725;DHT22;37801;53.224;6.552;2022-11-12T06:48:12;8.10;99.90
51725;DHT22;37801;53.224;6.552;2022-11-12T06:50:38;8.10;99.90
51725;DHT22;37801;53.224;6.552;2022-11-12T06:53:04;8.10;99.90
51725;DHT22;37801;53.224;6.552;2022-11-12T06:55:29;8.10;99.90
51725;DHT22;37801;53.224;6.552;2022-11-12T06:57:55;8.20;99.90
51725;DHT22;37801;53.224;6.552;2022-11-12T07:00:21;8.20;99.90
51725;DHT22;37801;53.224;6.552;2022-11-12T07:02:47;8.30;99.90
51725;DHT22;37801;53.224;6.552;2022-11-12T07:05:13;8.30;99.90
51725;DHT22;37801;53.224;6.552;2022-11-12T07:07:39;8.40;99.90
51725;DHT22;37801;53.224;6.552;2022-11-12T07:10:05;8.40;99.90
51725;DHT22;37801;53.224;6.552;2022-11-12T07:12:31;8.40;99.90
51725;DHT22;37801;53.224;6.552;2022-11-12T07:14:56;8.50;99.90
51725;DHT22;37801;53.224;6.552;2022-11-12T07:17:22;8.50;99.90
51725;DHT22;37801;53.224;6.552;2022-11-12T07:19:48;8.50;99.90
51725;DHT22;37801;53.224;6.552;2022-11-12T07:22:13;8.50;99.90
51725;DHT22;37801;53.224;6.552;2022-11-12T07:24:39;8.50;99.90
51725;DHT22;37801;53.224;6.552;2022-11-12T07:27:05;8.50;99.90
51725;DHT22;37801;53.224;6.552;2022-11-12T07:29:31;8.60;99.90
51725;DHT22;37801;53.224;6.552;2022-11-12T07:31:56;8.50;99.90
51725;DHT22;37801;53.224;6.552;2022-11-12T07:34:22;8.50;99.90
51725;DHT22;37801;53.224;6.552;2022-11-12T07:36:47;8.50;99.90
51725;DHT22;37801;53.224;6.552;2022-11-12T07:39:16;8.50;99.90
51725;DHT22;37801;53.224;6.552;2022-11-12T07:41:42;8.50;99.90
51725;DHT22;37801;53.224;6.552;2022-11-12T07:44:07;8.50;99.90
51725;DHT22;37801;53.224;6.552;2022-11-12T07:46:33;8.50;99.90
51725;DHT22;37801;53.224;6.552;2022-11-12T07:48:59;8.50;99.90
51725;DHT22;37801;53.224;6.552;2022-11-12T07:51:27;8.50;99.90
51725;DHT22;37801;53.224;6.552;2022-11-12T07:53:54;8.50;99.90
51725;DHT22;37801;53.224;6.552;2022-11-12T07:56:22;8.50;99.90
51725;DHT22;37801;53.224;6.552;2022-11-12T07:58:48;8.60;99.90
51725;DHT22;37801;53.224;6.552;2022-11-12T08:03:46;8.70;99.90
51725;DHT22;37801;53.224;6.552;2022-11-12T08:06:12;8.80;99.90
51725;DHT22;37801;53.224;6.552;2022-11-12T08:08:37;8.80;99.90
51725;DHT22;37801;53.224;6.552;2022-11-12T08:11:03;8.80;99.90
51725;DHT22;37801;53.224;6.552;2022-11-12T08:13:29;8.80;99.90
51725;DHT22;37801;53.224;6.552;2022-11-12T08:15:58;8.80;99.90
51725;DHT22;37801;53.224;6.552;2022-11-12T08:18:24;8.80;99.90
51725;DHT22;37801;53.224;6.552;2022-11-12T08:20:50;8.90;99.90
51725;DHT22;37801;53.224;6.552;2022-11-12T08:23:16;8.80;99.90
51725;DHT22;37801;53.224;6.552;2022-11-12T08:25:42;8.90;99.90
51725;DHT22;37801;53.224;6.552;2022-11-12T08:28:07;8.90;99.90
51725;DHT22;37801;53.224;6.552;2022-11-12T08:30:34;8.90;99.90
51725;DHT22;37801;53.224;6.552;2022-11-12T08:33:04;8.90;99.90
51725;DHT22;37801;53.224;6.552;2022-11-12T08:35:30;9.00;99.90
51725;DHT22;37801;53.224;6.552;2022-11-12T08:37:59;9.00;99.90
51725;DHT22;37801;53.224;6.552;2022-11-12T08:40:26;9.10;99.90
51725;DHT22;37801;53.224;6.552;2022-11-12T08:42:59;9.10;99.90
51725;DHT22;37801;53.224;6.552;2022-11-12T08:45:26;9.20;99.90
51725;DHT22;37801;53.224;6.552;2022-11-12T08:47:52;9.20;99.90
51725;DHT22;37801;53.224;6.552;2022-11-12T08:50:18;9.20;99.90
51725;DHT22;37801;53.224;6.552;2022-11-12T08:52:44;9.20;99.90
51725;DHT22;37801;53.224;6.552;2022-11-12T08:55:10;9.30;99.90
51725;DHT22;37801;53.224;6.552;2022-11-12T08:57:43;9.30;99.90
51725;DHT22;37801;53.224;6.552;2022-11-12T09:00:10;9.30;99.90
51725;DHT22;37801;53.224;6.552;2022-11-12T09:02:39;9.30;99.90
51725;DHT22;37801;53.224;6.552;2022-11-12T09:05:05;9.40;99.90
51725;DHT22;37801;53.224;6.552;2022-11-12T09:07:31;9.40;99.90
51725;DHT22;37801;53.224;6.552;2022-11-12T09:09:57;9.40;99.90
51725;DHT22;37801;53.224;6.552;2022-11-12T09:12:23;9.50;99.90
51725;DHT22;37801;53.224;6.552;2022-11-12T09:14:49;9.50;99.90
51725;DHT22;37801;53.224;6.552;2022-11-12T09:17:14;9.50;99.90
51725;DHT22;37801;53.224;6.552;2022-11-12T09:19:40;9.60;99.90
51725;DHT22;37801;53.224;6.552;2022-11-12T09:22:06;9.60;99.90
51725;DHT22;37801;53.224;6.552;2022-11-12T09:24:32;9.70;99.90
51725;DHT22;37801;53.224;6.552;2022-11-12T09:26:58;9.70;99.90
51725;DHT22;37801;53.224;6.552;2022-11-12T09:29:23;9.70;99.90
51725;DHT22;37801;53.224;6.552;2022-11-12T09:31:49;9.70;99.90
51725;DHT22;37801;53.224;6.552;2022-11-12T09:34:15;9.80;99.90
51725;DHT22;37801;53.224;6.552;2022-11-12T09:36:41;9.80;99.90
51725;DHT22;37801;53.224;6.552;2022-11-12T09:39:07;9.90;99.90
51725;DHT22;37801;53.224;6.552;2022-11-12T09:41:36;9.90;99.90
51725;DHT22;37801;53.224;6.552;2022-11-12T09:44:18;9.90;99.90
51725;DHT22;37801;53.224;6.552;2022-11-12T09:46:59;10.00;99.90
51725;DHT22;37801;53.224;6.552;2022-11-12T09:49:31;10.00;99.90
51725;DHT22;37801;53.224;6.552;2022-11-12T09:52:15;10.00;99.90
51725;DHT22;37801;53.224;6.552;2022-11-12T09:54:44;10.00;99.90
51725;DHT22;37801;53.224;6.552;2022-11-12T09:57:11;10.00;99.90
51725;DHT22;37801;53.224;6.552;2022-11-12T09:59:40;10.00;99.90
51725;DHT22;37801;53.224;6.552;2022-11-12T10:10:13;10.00;99.90
51725;DHT22;37801;53.224;6.552;2022-11-12T10:23:55;10.10;99.90
51725;DHT22;37801;53.224;6.552;2022-11-12T10:26:23;10.10;99.90
51725;DHT22;37801;53.224;6.552;2022-11-12T10:31:20;10.20;99.90
51725;DHT22;37801;53.224;6.552;2022-11-12T10:33:47;10.20;99.90
51725;DHT22;37801;53.224;6.552;2022-11-12T10:38:42;10.20;99.90
51725;DHT22;37801;53.224;6.552;2022-11-12T10:41:30;10.20;99.90
51725;DHT22;37801;53.224;6.552;2022-11-12T10:44:01;10.20;99.90
51725;DHT22;37801;53.224;6.552;2022-11-12T10:46:31;10.20;99.90
51725;DHT22;37801;53.224;6.552;2022-11-12T10:49:05;10.20;99.90
51725;DHT22;37801;53.224;6.552;2022-11-12T10:51:36;10.10;99.90
51725;DHT22;37801;53.224;6.552;2022-11-12T10:54:35;10.20;99.90
51725;DHT22;37801;53.224;6.552;2022-11-12T10:57:27;10.20;99.90
51725;DHT22;37801;53.224;6.552;2022-11-12T11:00:25;10.30;99.90
51725;DHT22;37801;53.224;6.552;2022-11-12T11:02:53;10.30;99.90
51725;DHT22;37801;53.224;6.552;2022-11-12T11:05:58;10.20;99.90
51725;DHT22;37801;53.224;6.552;2022-11-12T11:08:33;10.30;99.90
51725;DHT22;37801;53.224;6.552;2022-11-12T11:11:25;10.30;99.90
51725;DHT22;37801;53.224;6.552;2022-11-12T11:13:54;10.20;99.90
51725;DHT22;37801;53.224;6.552;2022-11-12T11:16:22;10.30;99.90
51725;DHT22;37801;53.224;6.552;2022-11-12T11:18:52;10.30;99.90
51725;DHT22;37801;53.224;6.552;2022-11-12T11:30:13;10.30;99.90
51725;DHT22;37801;53.224;6.552;2022-11-12T11:52:25;10.50;99.90
51725;DHT22;37801;53.224;6.552;2022-11-12T11:56:58;10.60;99.90
51725;DHT22;37801;53.224;6.552;2022-11-12T12:05:25;10.70;99.90
51725;DHT22;37801;53.224;6.552;2022-11-12T12:13:20;10.70;99.90
51725;DHT22;37801;53.224;6.552;2022-11-12T12:19:53;10.80;99.90
51725;DHT22;37801;53.224;6.552;2022-11-12T12:21:49;10.80;99.90
51725;DHT22;37801;53.224;6.552;2022-11-12T12:34:49;10.90;99.90
51725;DHT22;37801;53.224;6.552;2022-11-12T12:37:40;10.90;99.90
51725;DHT22;37801;53.224;6.552;2022-11-12T12:42:54;10.90;99.90
51725;DHT22;37801;53.224;6.552;2022-11-12T12:47:47;11.00;99.90
51725;DHT22;37801;53.224;6.552;2022-11-12T12:50:14;11.00;99.90
51725;DHT22;37801;53.224;6.552;2022-11-12T12:55:36;11.00;99.90
51725;DHT22;37801;53.224;6.552;2022-11-12T12:58:02;11.00;99.90
51725;DHT22;37801;53.224;6.552;2022-11-12T13:00:39;10.90;99.90
51725;DHT22;37801;53.224;6.552;2022-11-12T13:03:06;10.90;99.90
51725;DHT22;37801;53.224;6.552;2022-11-12T13:05:36;10.90;99.90
51725;DHT22;37801;53.224;6.552;2022-11-12T13:08:20;11.00;99.90
51725;DHT22;37801;53.224;6.552;2022-11-12T13:10:49;11.10;99.90
51725;DHT22;37801;53.224;6.552;2022-11-12T13:23:52;11.20;99.90
51725;DHT22;37801;53.224;6.552;2022-11-12T13:31:47;11.10;99.90
51725;DHT22;37801;53.224;6.552;2022-11-12T13:34:21;11.00;99.90
51725;DHT22;37801;53.224;6.552;2022-11-12T13:36:58;11.00;99.90
51725;DHT22;37801;53.224;6.552;2022-11-12T13:39:25;11.00;99.90
51725;DHT22;37801;53.224;6.552;2022-11-12T13:42:00;10.90;99.90
51725;DHT22;37801;53.224;6.552;2022-11-12T13:44:46;10.90;99.90
51725;DHT22;37801;53.224;6.552;2022-11-12T13:47:15;10.90;99.90
51725;DHT22;37801;53.224;6.552;2022-11-12T13:49:44;10.80;99.90
51725;DHT22;37801;53.224;6.552;2022-11-12T13:52:14;10.80;99.90
51725;DHT22;37801;53.224;6.552;2022-11-12T13:54:40;10.70;99.90
51725;DHT22;37801;53.224;6.552;2022-11-12T13:59:46;10.70;99.90
51725;DHT22;37801;53.224;6.552;2022-11-12T14:02:22;10.70;99.90
51725;DHT22;37801;53.224;6.552;2022-11-12T14:04:49;10.70;99.90
51725;DHT22;37801;53.224;6.552;2022-11-12T14:07:43;10.60;99.90
51725;DHT22;37801;53.224;6.552;2022-11-12T14:13:05;10.50;99.90
51725;DHT22;37801;53.224;6.552;2022-11-12T14:18:23;10.60;99.90
51725;DHT22;37801;53.224;6.552;2022-11-12T14:20:51;10.60;99.90
51725;DHT22;37801;53.224;6.552;2022-11-12T14:23:19;10.50;99.90
51725;DHT22;37801;53.224;6.552;2022-11-12T14:25:55;10.50;99.90
51725;DHT22;37801;53.224;6.552;2022-11-12T14:28:30;10.50;99.90
51725;DHT22;37801;53.224;6.552;2022-11-12T14:30:57;10.50;99.90
51725;DHT22;37801;53.224;6.552;2022-11-12T14:33:25;10.50;99.90
51725;DHT22;37801;53.224;6.552;2022-11-12T14:35:52;10.50;99.90
51725;DHT22;37801;53.224;6.552;2022-11-12T14:38:22;10.50;99.90
51725;DHT22;37801;53.224;6.552;2022-11-12T14:40:55;10.50;99.90
51725;DHT22;37801;53.224;6.552;2022-11-12T14:43:45;10.40;99.90
51725;DHT22;37801;53.224;6.552;2022-11-12T14:46:48;10.50;99.90
51725;DHT22;37801;53.224;6.552;2022-11-12T14:51:55;10.50;99.90
51725;DHT22;37801;53.224;6.552;2022-11-12T14:54:29;10.40;99.90
51725;DHT22;37801;53.224;6.552;2022-11-12T14:56:57;10.40;99.90
51725;DHT22;37801;53.224;6.552;2022-11-12T14:59:25;10.30;99.90
51725;DHT22;37801;53.224;6.552;2022-11-12T15:02:22;10.30;99.90
51725;DHT22;37801;53.224;6.552;2022-11-12T15:05:01;10.40;99.90
51725;DHT22;37801;53.224;6.552;2022-11-12T15:07:49;10.40;99.90
51725;DHT22;37801;53.224;6.552;2022-11-12T15:10:29;10.30;99.90
51725;DHT22;37801;53.224;6.552;2022-11-12T15:13:11;10.30;99.90
51725;DHT22;37801;53.224;6.552;2022-11-12T15:15:48;10.30;99.90
51725;DHT22;37801;53.224;6.552;2022-11-12T15:18:20;10.30;99.90
51725;DHT22;37801;53.224;6.552;2022-11-12T15:21:11;10.20;99.90
51725;DHT22;37801;53.224;6.552;2022-11-12T15:23:52;10.20;99.90
51725;DHT22;37801;53.224;6.552;2022-11-12T15:29:01;10.20;99.90
51725;DHT22;37801;53.224;6.552;2022-11-12T15:31:28;10.20;99.90
51725;DHT22;37801;53.224;6.552;2022-11-12T15:33:53;10.20;99.90
51725;DHT22;37801;53.224;6.552;2022-11-12T15:36:21;10.10;99.90
51725;DHT22;37801;53.224;6.552;2022-11-12T15:38:50;10.00;99.90
51725;DHT22;37801;53.224;6.552;2022-11-12T15:41:27;10.10;99.90
51725;DHT22;37801;53.224;6.552;2022-11-12T15:43:54;10.00;99.90
51725;DHT22;37801;53.224;6.552;2022-11-12T15:46:20;10.00;99.90
51725;DHT22;37801;53.224;6.552;2022-11-12T15:48:46;10.00;99.90
51725;DHT22;37801;53.224;6.552;2022-11-12T15:51:14;10.00;99.90
51725;DHT22;37801;53.224;6.552;2022-11-12T15:53:40;10.00;99.90
51725;DHT22;37801;53.224;6.552;2022-11-12T15:56:16;10.00;99.90
51725;DHT22;37801;53.224;6.552;2022-11-12T15:58:43;9.90;99.90
51725;DHT22;37801;53.224;6.552;2022-11-12T16:01:10;9.90;99.90
51725;DHT22;37801;53.224;6.552;2022-11-12T16:03:36;9.90;99.90
51725;DHT22;37801;53.224;6.552;2022-11-12T16:06:02;9.90;99.90
51725;DHT22;37801;53.224;6.552;2022-11-12T16:08:28;9.90;99.90
51725;DHT22;37801;53.224;6.552;2022-11-12T16:10:54;9.90;99.90
51725;DHT22;37801;53.224;6.552;2022-11-12T16:13:27;9.90;99.90
51725;DHT22;37801;53.224;6.552;2022-11-12T16:15:54;9.90;99.90
51725;DHT22;37801;53.224;6.552;2022-11-12T16:18:19;9.90;99.90
51725;DHT22;37801;53.224;6.552;2022-11-12T16:20:46;9.90;99.90
51725;DHT22;37801;53.224;6.552;2022-11-12T16:23:13;9.80;99.90
51725;DHT22;37801;53.224;6.552;2022-11-12T16:25:40;9.80;99.90
51725;DHT22;37801;53.224;6.552;2022-11-12T16:28:17;9.80;99.90
51725;DHT22;37801;53.224;6.552;2022-11-12T16:30:44;9.80;99.90
51725;DHT22;37801;53.224;6.552;2022-11-12T16:33:11;9.80;99.90
51725;DHT22;37801;53.224;6.552;2022-11-12T16:35:37;9.80;99.90
51725;DHT22;37801;53.224;6.552;2022-11-12T16:38:07;9.70;99.90
51725;DHT22;37801;53.224;6.552;2022-11-12T16:40:34;9.70;99.90
51725;DHT22;37801;53.224;6.552;2022-11-12T16:43:00;9.70;99.90
51725;DHT22;37801;53.224;6.552;2022-11-12T16:45:33;9.70;99.90
51725;DHT22;37801;53.224;6.552;2022-11-12T16:47:59;9.70;99.90
51725;DHT22;37801;53.224;6.552;2022-11-12T16:50:26;9.70;99.90
51725;DHT22;37801;53.224;6.552;2022-11-12T16:52:53;9.60;99.90
51725;DHT22;37801;53.224;6.552;2022-11-12T16:55:20;9.60;99.90
51725;DHT22;37801;53.224;6.552;2022-11-12T16:57:45;9.50;99.90
51725;DHT22;37801;53.224;6.552;2022-11-12T17:00:13;9.50;99.90
51725;DHT22;37801;53.224;6.552;2022-11-12T17:02:40;9.50;99.90
51725;DHT22;37801;53.224;6.552;2022-11-12T17:05:17;9.40;99.90
51725;DHT22;37801;53.224;6.552;2022-11-12T17:07:44;9.40;99.90
51725;DHT22;37801;53.224;6.552;2022-11-12T17:10:10;9.40;99.90
51725;DHT22;37801;53.224;6.552;2022-11-12T17:12:36;9.40;99.90
51725;DHT22;37801;53.224;6.552;2022-11-12T17:15:01;9.40;99.90
51725;DHT22;37801;53.224;6.552;2022-11-12T17:17:27;9.30;99.90
51725;DHT22;37801;53.224;6.552;2022-11-12T17:19:53;9.20;99.90
51725;DHT22;37801;53.224;6.552;2022-11-12T17:22:19;9.20;99.90
51725;DHT22;37801;53.224;6.552;2022-11-12T17:24:45;9.20;99.90
51725;DHT22;37801;53.224;6.552;2022-11-12T17:27:11;9.20;99.90
51725;DHT22;37801;53.224;6.552;2022-11-12T17:29:37;9.20;99.90
51725;DHT22;37801;53.224;6.552;2022-11-12T17:32:02;9.20;99.90
51725;DHT22;37801;53.224;6.552;2022-11-12T17:34:28;9.20;99.90
51725;DHT22;37801;53.224;6.552;2022-11-12T17:36:54;9.20;99.90
51725;DHT22;37801;53.224;6.552;2022-11-12T17:39:20;9.20;99.90
51725;DHT22;37801;53.224;6.552;2022-11-12T17:41:46;9.10;99.90
51725;DHT22;37801;53.224;6.552;2022-11-12T17:44:15;9.10;99.90
51725;DHT22;37801;53.224;6.552;2022-11-12T17:46:41;9.10;99.90
51725;DHT22;37801;53.224;6.552;2022-11-12T17:49:07;9.10;99.90
51725;DHT22;37801;53.224;6.552;2022-11-12T17:51:34;9.10;99.90
51725;DHT22;37801;53.224;6.552;2022-11-12T17:53:59;9.10;99.90
51725;DHT22;37801;53.224;6.552;2022-11-12T17:56:25;9.10;99.90
51725;DHT22;37801;53.224;6.552;2022-11-12T17:58:51;9.00;99.90